Time;durP1;ratioP1;P1;durP2;ratioP2;P2;SDS_P1;SDS_P2;PMS_P1;PMS_P2;Temp;Humidity;BMP_temperature;BMP_pressure;BME280_temperature;BME280_humidity;BME280_pressure;Samples;Min_cycle;Max_cycle;Signal;HPM_P1;HPM_P2
2023/07/23 00:02:19;;;;;;;3.00;2.80;;;22.20;65.70;;;;;;5030883;28;20132;-80
2023/07/23 00:04:45;;;;;;;2.80;2.70;;;22.20;65.90;;;;;;5031656;28;20112;-80
2023/07/23 00:07:10;;;;;;;2.88;2.78;;;22.20;66.00;;;;;;5029660;28;20052;-79
2023/07/23 00:09:36;;;;;;;2.80;2.70;;;22.10;65.90;;;;;;5065163;28;20049;-79
2023/07/23 00:12:02;;;;;;;3.03;2.90;;;22.20;66.00;;;;;;5030321;28;20045;-79
2023/07/23 00:14:27;;;;;;;2.55;2.35;;;22.10;65.90;;;;;;5033931;28;20080;-79
2023/07/23 00:16:53;;;;;;;2.78;2.67;;;22.10;65.90;;;;;;5059458;28;20036;-79
2023/07/23 00:19:19;;;;;;;2.38;2.28;;;22.20;66.00;;;;;;5050914;28;20046;-79
2023/07/23 00:21:48;;;;;;;2.42;2.28;;;22.10;65.80;;;;;;5055185;28;20046;-79
2023/07/23 00:24:17;;;;;;;2.83;2.72;;;22.10;65.80;;;;;;5047248;28;20037;-79
2023/07/23 00:26:43;;;;;;;3.00;2.80;;;22.20;66.10;;;;;;5049418;28;20045;-79
2023/07/23 00:29:09;;;;;;;2.78;2.67;;;22.10;65.90;;;;;;5055481;28;20158;-79
2023/07/23 00:31:34;;;;;;;2.80;2.60;;;22.20;66.90;;;;;;5053847;28;20068;-79
2023/07/23 00:34:03;;;;;;;2.70;2.60;;;22.10;65.80;;;;;;5046102;28;20063;-79
2023/07/23 00:36:28;;;;;;;2.67;2.58;;;22.10;65.90;;;;;;5039489;28;20111;-79
2023/07/23 00:38:54;;;;;;;2.53;2.42;;;22.10;65.90;;;;;;5047758;28;20486;-79
2023/07/23 00:41:19;;;;;;;2.45;2.35;;;22.10;66.10;;;;;;5052191;28;20041;-79
2023/07/23 00:43:45;;;;;;;3.08;2.97;;;22.10;65.90;;;;;;5053948;28;20052;-79
2023/07/23 00:46:10;;;;;;;3.00;2.90;;;22.20;66.90;;;;;;5048688;28;20049;-79
2023/07/23 00:48:36;;;;;;;2.70;2.60;;;22.10;66.20;;;;;;5039407;28;20046;-79
2023/07/23 00:51:02;;;;;;;2.67;2.58;;;22.20;66.00;;;;;;5068175;28;20179;-79
2023/07/23 00:53:27;;;;;;;3.10;3.00;;;22.20;66.20;;;;;;5032188;28;20507;-79
2023/07/23 00:55:53;;;;;;;3.10;3.00;;;22.10;66.00;;;;;;5032013;28;20126;-79
2023/07/23 00:58:19;;;;;;;2.70;2.60;;;22.20;65.90;;;;;;5032056;28;20517;-79
2023/07/23 01:00:44;;;;;;;2.78;2.67;;;22.10;66.10;;;;;;5025332;28;20423;-79
2023/07/23 01:03:10;;;;;;;3.08;2.97;;;22.10;66.90;;;;;;5032360;28;20065;-79
2023/07/23 01:05:37;;;;;;;2.85;2.75;;;22.20;66.10;;;;;;5029503;28;20461;-79
2023/07/23 01:08:03;;;;;;;2.72;2.63;;;22.20;66.10;;;;;;5043190;28;20068;-79
2023/07/23 01:10:31;;;;;;;2.70;2.60;;;22.10;66.20;;;;;;5060868;28;20049;-79
2023/07/23 01:12:57;;;;;;;2.60;2.50;;;22.20;66.30;;;;;;5049424;28;20170;-79
2023/07/23 01:15:22;;;;;;;2.75;2.60;;;22.10;66.00;;;;;;5031659;28;20124;-79
2023/07/23 01:17:48;;;;;;;2.65;2.55;;;22.10;67.00;;;;;;5032890;28;20123;-79
2023/07/23 01:20:13;;;;;;;2.63;2.53;;;22.10;66.10;;;;;;5043572;28;20049;-79
2023/07/23 01:22:39;;;;;;;2.67;2.58;;;22.10;65.90;;;;;;5063704;28;20534;-79
2023/07/23 01:25:04;;;;;;;2.97;2.78;;;22.20;66.10;;;;;;5035818;28;20763;-79
2023/07/23 01:27:30;;;;;;;2.67;2.58;;;22.20;66.20;;;;;;5027160;28;20114;-79
2023/07/23 01:29:56;;;;;;;2.92;2.83;;;22.10;66.00;;;;;;5045214;28;20045;-79
2023/07/23 01:32:21;;;;;;;2.75;2.65;;;22.10;66.70;;;;;;5063925;28;20042;-79
2023/07/23 01:34:47;;;;;;;2.60;2.50;;;22.20;66.10;;;;;;5053119;28;20044;-79
2023/07/23 01:37:13;;;;;;;2.58;2.47;;;22.10;66.00;;;;;;5033423;28;20405;-79
2023/07/23 01:39:39;;;;;;;2.15;2.05;;;22.20;66.10;;;;;;5030978;28;20061;-79
2023/07/23 01:42:07;;;;;;;2.40;2.30;;;22.10;66.00;;;;;;5062762;28;29876;-79
2023/07/23 01:44:33;;;;;;;2.20;2.10;;;22.20;66.10;;;;;;5052759;28;20056;-80
2023/07/23 01:46:59;;;;;;;2.50;2.40;;;22.10;66.10;;;;;;5042805;28;20044;-79
2023/07/23 01:49:24;;;;;;;2.70;2.60;;;22.10;66.00;;;;;;5052809;28;20123;-80
2023/07/23 01:51:50;;;;;;;2.60;2.50;;;22.10;66.20;;;;;;5057077;28;20494;-79
2023/07/23 01:54:15;;;;;;;2.53;2.42;;;22.10;66.10;;;;;;5039332;28;20052;-79
2023/07/23 01:56:41;;;;;;;2.80;2.70;;;22.10;66.10;;;;;;5034902;28;20038;-79
2023/07/23 01:59:08;;;;;;;2.60;2.50;;;22.10;66.10;;;;;;5037209;28;20081;-79
2023/07/23 02:01:34;;;;;;;2.65;2.55;;;22.10;66.90;;;;;;5033913;28;20052;-79
2023/07/23 02:03:59;;;;;;;2.80;2.70;;;22.10;66.10;;;;;;5033994;28;20466;-79
2023/07/23 02:06:25;;;;;;;3.08;2.97;;;22.10;66.10;;;;;;5035480;28;20422;-79
2023/07/23 02:08:50;;;;;;;3.03;2.70;;;22.10;66.10;;;;;;5039042;28;20041;-79
2023/07/23 02:11:16;;;;;;;2.50;2.40;;;22.10;66.20;;;;;;5017261;28;20140;-79
2023/07/23 02:13:41;;;;;;;2.20;2.10;;;22.10;66.20;;;;;;5045721;28;20048;-79
2023/07/23 02:16:15;;;;;;;2.53;2.30;;;22.10;66.30;;;;;;5032178;28;20048;-80
2023/07/23 02:18:40;;;;;;;2.67;2.58;;;22.10;66.30;;;;;;5054459;28;20533;-79
2023/07/23 02:21:06;;;;;;;3.00;2.80;;;22.10;66.30;;;;;;5058212;28;20033;-80
2023/07/23 02:23:31;;;;;;;2.70;2.60;;;22.10;66.20;;;;;;5040632;28;20594;-80
2023/07/23 02:25:57;;;;;;;2.67;2.58;;;22.10;66.10;;;;;;5056703;28;20512;-79
2023/07/23 02:28:22;;;;;;;2.45;2.35;;;22.10;66.00;;;;;;5026776;28;20045;-79
2023/07/23 02:30:58;;;;;;;2.55;2.35;;;22.10;66.30;;;;;;5064342;28;20041;-80
2023/07/23 02:33:23;;;;;;;2.60;2.50;;;22.10;66.20;;;;;;5030660;28;20064;-79
2023/07/23 02:35:49;;;;;;;2.40;2.30;;;22.10;66.30;;;;;;5034622;28;20148;-79
2023/07/23 02:38:15;;;;;;;2.33;2.22;;;22.10;66.40;;;;;;5036922;28;20716;-79
2023/07/23 02:40:40;;;;;;;2.45;2.35;;;22.10;66.40;;;;;;5039065;28;20571;-79
2023/07/23 02:43:09;;;;;;;2.92;2.83;;;22.10;66.60;;;;;;5042217;28;20046;-79
2023/07/23 02:45:35;;;;;;;2.85;2.75;;;22.10;66.40;;;;;;5017782;28;20113;-79
2023/07/23 02:48:00;;;;;;;2.47;2.38;;;22.10;66.30;;;;;;5026374;28;20376;-79
2023/07/23 02:50:26;;;;;;;2.17;2.08;;;22.10;66.50;;;;;;5048289;28;20058;-79
2023/07/23 02:52:52;;;;;;;2.47;2.38;;;22.10;66.60;;;;;;5041309;28;20463;-79
2023/07/23 02:55:18;;;;;;;2.40;2.30;;;22.10;66.50;;;;;;5032112;28;20069;-79
2023/07/23 02:57:44;;;;;;;2.78;2.67;;;22.10;66.30;;;;;;5036474;28;20075;-79
2023/07/23 03:00:11;;;;;;;2.65;2.55;;;22.10;66.30;;;;;;5043880;28;20053;-79
2023/07/23 03:02:37;;;;;;;2.53;2.33;;;22.10;66.20;;;;;;5051974;28;20049;-79
2023/07/23 03:05:03;;;;;;;2.72;2.55;;;22.10;66.40;;;;;;5035523;28;20052;-79
2023/07/23 03:07:31;;;;;;;2.35;2.25;;;22.10;66.30;;;;;;5036642;28;20111;-79
2023/07/23 03:09:56;;;;;;;2.33;2.22;;;22.10;66.20;;;;;;5022628;28;20090;-79
2023/07/23 03:12:22;;;;;;;2.20;2.10;;;22.10;66.30;;;;;;5020844;28;20049;-79
2023/07/23 03:14:48;;;;;;;2.35;2.25;;;22.10;66.30;;;;;;5033592;28;20050;-79
2023/07/23 03:17:13;;;;;;;2.40;2.30;;;22.10;66.40;;;;;;5044390;28;20495;-80
2023/07/23 03:19:39;;;;;;;2.38;2.28;;;22.10;66.50;;;;;;5037724;28;20041;-79
2023/07/23 03:22:04;;;;;;;2.05;1.95;;;22.10;66.50;;;;;;5030848;28;20495;-79
2023/07/23 03:24:30;;;;;;;2.25;2.15;;;22.10;66.40;;;;;;5032493;28;20083;-79
2023/07/23 03:26:56;;;;;;;2.33;2.22;;;22.10;66.60;;;;;;5035557;28;20065;-79
2023/07/23 03:29:21;;;;;;;2.42;2.33;;;22.10;66.50;;;;;;5051053;28;20527;-79
2023/07/23 03:31:47;;;;;;;2.50;2.40;;;22.10;66.40;;;;;;5036174;28;20084;-79
2023/07/23 03:34:12;;;;;;;2.30;2.20;;;22.10;66.40;;;;;;5045010;28;20041;-79
2023/07/23 03:36:38;;;;;;;2.22;2.13;;;22.10;66.20;;;;;;5034596;28;20038;-79
2023/07/23 03:39:03;;;;;;;2.25;2.15;;;22.10;66.50;;;;;;5035038;28;20140;-79
2023/07/23 03:41:29;;;;;;;2.47;2.35;;;22.10;66.30;;;;;;5036325;28;20038;-79
2023/07/23 03:43:54;;;;;;;2.60;2.40;;;22.10;66.50;;;;;;5020486;28;20036;-79
2023/07/23 03:46:20;;;;;;;2.50;2.40;;;22.10;66.60;;;;;;5031150;28;20041;-79
2023/07/23 03:48:47;;;;;;;2.17;2.08;;;22.10;66.70;;;;;;5045635;28;20037;-79
2023/07/23 03:51:14;;;;;;;2.30;2.20;;;22.10;66.60;;;;;;5033842;28;20045;-79
2023/07/23 03:53:40;;;;;;;2.20;2.10;;;22.10;67.40;;;;;;5037939;28;20045;-79
2023/07/23 03:56:05;;;;;;;2.40;2.30;;;22.10;66.60;;;;;;5048704;28;20059;-79
2023/07/23 03:58:31;;;;;;;2.10;2.00;;;22.10;66.60;;;;;;5032553;28;20053;-79
2023/07/23 04:00:57;;;;;;;2.38;2.28;;;22.10;66.70;;;;;;5032577;28;20036;-79
2023/07/23 04:03:22;;;;;;;2.03;1.92;;;22.10;66.70;;;;;;5034178;28;20037;-79
2023/07/23 04:05:48;;;;;;;2.00;1.98;;;22.10;66.60;;;;;;5030044;28;20037;-79
2023/07/23 04:08:13;;;;;;;2.20;2.10;;;22.10;66.70;;;;;;5034967;28;20060;-79
2023/07/23 04:10:39;;;;;;;2.22;2.13;;;22.10;66.60;;;;;;5038503;28;20502;-79
2023/07/23 04:13:04;;;;;;;2.10;2.00;;;22.10;66.70;;;;;;5030374;28;20033;-79
2023/07/23 04:15:31;;;;;;;2.13;2.03;;;22.10;66.70;;;;;;5036456;28;20064;-79
2023/07/23 04:17:56;;;;;;;2.00;1.90;;;22.10;66.70;;;;;;5029722;28;20550;-79
2023/07/23 04:20:22;;;;;;;2.13;2.03;;;22.10;66.60;;;;;;5034048;28;20050;-79
2023/07/23 04:22:47;;;;;;;1.90;1.80;;;22.10;66.80;;;;;;5036991;28;20618;-79
2023/07/23 04:25:13;;;;;;;1.85;1.85;;;22.10;66.70;;;;;;5030587;28;20053;-79
2023/07/23 04:27:39;;;;;;;2.20;2.10;;;22.10;66.70;;;;;;5034452;28;20050;-79
2023/07/23 04:30:05;;;;;;;2.10;2.00;;;22.10;66.70;;;;;;5036327;28;20243;-79
2023/07/23 04:32:30;;;;;;;2.10;2.00;;;22.10;66.50;;;;;;5046937;28;20075;-80
2023/07/23 04:34:56;;;;;;;1.83;1.73;;;22.10;66.70;;;;;;5031951;28;20061;-80
2023/07/23 04:37:21;;;;;;;1.55;1.50;;;22.10;66.70;;;;;;5024451;28;20053;-79
2023/07/23 04:39:47;;;;;;;1.88;1.77;;;22.10;66.50;;;;;;5018029;28;20044;-79
2023/07/23 04:42:13;;;;;;;2.30;2.20;;;22.10;66.40;;;;;;5025650;28;20136;-79
2023/07/23 04:44:38;;;;;;;2.10;2.00;;;22.00;66.40;;;;;;5035262;28;20509;-79
2023/07/23 04:47:04;;;;;;;2.00;1.90;;;22.10;66.60;;;;;;5028916;28;20037;-79
2023/07/23 04:49:30;;;;;;;2.08;1.98;;;22.00;66.60;;;;;;5053537;28;20033;-79
2023/07/23 04:51:55;;;;;;;1.55;1.50;;;22.10;66.70;;;;;;5029514;28;20076;-79
2023/07/23 04:54:21;;;;;;;1.63;1.55;;;22.00;66.60;;;;;;5028830;28;20499;-79
2023/07/23 04:56:46;;;;;;;1.80;1.70;;;22.10;66.80;;;;;;5033979;28;20107;-79
2023/07/23 04:59:12;;;;;;;1.67;1.65;;;22.10;66.60;;;;;;5018863;28;20124;-79
2023/07/23 05:01:37;;;;;;;2.00;1.52;;;22.10;66.70;;;;;;5034700;28;20061;-79
2023/07/23 05:04:03;;;;;;;1.55;1.52;;;22.00;66.50;;;;;;5044555;28;20048;-79
2023/07/23 05:06:29;;;;;;;2.15;1.85;;;22.00;66.60;;;;;;5015921;28;20045;-80
2023/07/23 05:08:54;;;;;;;1.92;1.83;;;22.10;66.80;;;;;;5030389;28;20524;-80
2023/07/23 05:11:20;;;;;;;1.80;1.70;;;22.10;66.80;;;;;;5033409;28;20049;-80
2023/07/23 05:13:45;;;;;;;1.70;1.60;;;22.10;66.50;;;;;;5037458;28;20079;-80
2023/07/23 05:16:11;;;;;;;1.55;1.55;;;22.00;67.00;;;;;;5032363;28;20149;-80
2023/07/23 05:18:37;;;;;;;1.70;1.70;;;22.00;66.80;;;;;;5029812;28;20132;-80
2023/07/23 05:21:03;;;;;;;1.70;1.60;;;22.00;66.70;;;;;;5032151;28;20041;-80
2023/07/23 05:23:28;;;;;;;1.58;1.48;;;22.00;66.70;;;;;;5031054;28;20045;-80
2023/07/23 05:25:56;;;;;;;2.17;1.70;;;22.10;66.90;;;;;;5030610;28;20037;-80
2023/07/23 05:28:21;;;;;;;1.48;1.48;;;22.10;67.00;;;;;;5029989;28;20088;-80
2023/07/23 05:30:47;;;;;;;1.67;1.58;;;22.10;67.00;;;;;;5032605;28;20046;-80
2023/07/23 05:33:12;;;;;;;1.60;1.50;;;22.10;66.80;;;;;;5029714;28;20045;-80
2023/07/23 05:35:38;;;;;;;1.50;1.48;;;22.10;66.80;;;;;;5034248;28;20041;-80
2023/07/23 05:38:04;;;;;;;1.63;1.55;;;22.10;66.90;;;;;;5022274;28;20077;-80
2023/07/23 05:40:31;;;;;;;1.67;1.65;;;22.10;66.80;;;;;;5018846;28;20648;-80
2023/07/23 05:42:56;;;;;;;1.50;1.50;;;22.10;66.70;;;;;;5029022;28;20061;-80
2023/07/23 05:45:22;;;;;;;1.40;1.40;;;22.10;66.90;;;;;;5028170;28;20087;-80
2023/07/23 05:47:48;;;;;;;1.45;1.45;;;22.10;66.90;;;;;;5034170;28;20033;-80
2023/07/23 05:50:13;;;;;;;1.67;1.67;;;22.10;67.00;;;;;;5036456;28;20037;-80
2023/07/23 05:52:39;;;;;;;1.48;1.38;;;22.00;67.10;;;;;;5037232;28;20087;-80
2023/07/23 05:55:05;;;;;;;1.33;1.33;;;22.00;67.00;;;;;;5025301;28;20129;-80
2023/07/23 05:57:30;;;;;;;1.52;1.52;;;22.10;67.10;;;;;;5021375;28;20038;-83
2023/07/23 05:59:56;;;;;;;1.00;1.00;;;22.10;67.30;;;;;;5020072;28;20038;-82
2023/07/23 06:02:21;;;;;;;0.90;0.90;;;22.10;69.60;;;;;;5034262;28;20045;-82
2023/07/23 06:04:47;;;;;;;1.00;1.00;;;22.10;71.60;;;;;;5040700;28;20065;-81
2023/07/23 06:07:12;;;;;;;0.80;0.80;;;22.00;71.70;;;;;;5029346;28;20041;-76
2023/07/23 06:09:38;;;;;;;0.82;0.82;;;22.00;72.20;;;;;;5030768;28;20426;-76
2023/07/23 06:12:04;;;;;;;0.80;0.80;;;21.90;73.40;;;;;;5039951;28;20566;-76
2023/07/23 06:14:29;;;;;;;0.77;0.77;;;21.90;74.00;;;;;;5034805;28;20400;-76
2023/07/23 06:16:55;;;;;;;1.35;0.70;;;21.90;74.90;;;;;;5038606;28;20052;-77
2023/07/23 06:19:21;;;;;;;0.63;0.63;;;21.90;74.70;;;;;;5029017;28;20491;-76
2023/07/23 06:21:46;;;;;;;0.52;0.52;;;21.90;75.70;;;;;;5031875;28;20471;-78
2023/07/23 06:24:12;;;;;;;0.63;0.63;;;21.90;75.00;;;;;;5023112;28;20057;-77
2023/07/23 06:26:37;;;;;;;0.60;0.60;;;21.90;75.40;;;;;;5034101;28;20504;-77
2023/07/23 06:29:05;;;;;;;0.60;0.60;;;21.90;75.30;;;;;;5038018;28;20480;-78
2023/07/23 06:31:30;;;;;;;0.50;0.50;;;21.90;76.40;;;;;;5034054;28;20044;-75
2023/07/23 06:33:56;;;;;;;0.40;0.40;;;21.80;76.80;;;;;;5034094;28;20094;-76
2023/07/23 06:36:22;;;;;;;0.60;0.60;;;21.90;77.30;;;;;;5039261;28;20048;-76
2023/07/23 06:38:49;;;;;;;0.45;0.45;;;21.80;75.60;;;;;;5029565;28;20037;-76
2023/07/23 06:41:14;;;;;;;0.40;0.40;;;21.80;77.40;;;;;;5033833;28;20102;-76
2023/07/23 06:43:40;;;;;;;1.05;0.40;;;21.80;77.30;;;;;;5035598;28;20041;-75
2023/07/23 06:46:05;;;;;;;0.35;0.35;;;21.80;77.90;;;;;;5033381;28;20132;-76
2023/07/23 06:48:31;;;;;;;0.40;0.40;;;21.80;78.50;;;;;;5029776;28;20037;-76
2023/07/23 06:50:57;;;;;;;0.30;0.30;;;21.70;78.80;;;;;;5033525;28;20499;-76
2023/07/23 06:53:23;;;;;;;0.32;0.32;;;21.70;78.50;;;;;;5028982;28;20046;-76
2023/07/23 06:55:59;;;;;;;0.88;0.50;;;21.70;79.10;;;;;;5039083;28;20041;-75
2023/07/23 06:58:25;;;;;;;0.75;0.50;;;21.70;78.70;;;;;;5032781;28;20530;-76
2023/07/23 07:00:51;;;;;;;0.45;0.45;;;21.80;78.80;;;;;;5018809;28;20087;-76
2023/07/23 07:03:16;;;;;;;0.40;0.40;;;21.70;79.40;;;;;;5028889;28;20095;-77
2023/07/23 07:05:42;;;;;;;1.65;0.50;;;21.70;77.40;;;;;;5039401;28;20044;-76
2023/07/23 07:08:07;;;;;;;0.30;0.30;;;21.70;78.50;;;;;;5032697;28;20042;-76
2023/07/23 07:10:33;;;;;;;0.30;0.30;;;21.70;78.80;;;;;;5031659;28;20083;-76
2023/07/23 07:12:59;;;;;;;0.30;0.30;;;21.70;79.30;;;;;;5034010;28;20102;-76
2023/07/23 07:15:25;;;;;;;0.40;0.40;;;21.70;79.60;;;;;;5051998;28;20041;-76
2023/07/23 07:17:51;;;;;;;0.40;0.40;;;21.70;80.10;;;;;;5036670;28;20041;-76
2023/07/23 07:20:17;;;;;;;0.30;0.30;;;21.60;80.20;;;;;;5018842;28;20042;-76
2023/07/23 07:22:42;;;;;;;2.13;0.40;;;21.70;80.50;;;;;;5033599;28;20517;-75
2023/07/23 07:25:08;;;;;;;0.40;0.40;;;21.60;81.50;;;;;;5030855;28;20775;-76
2023/07/23 07:27:33;;;;;;;1.63;0.40;;;21.70;80.00;;;;;;5028703;28;20044;-76
2023/07/23 07:29:59;;;;;;;0.80;0.50;;;21.70;80.80;;;;;;5046217;28;20041;-76
2023/07/23 07:32:24;;;;;;;0.63;0.50;;;21.70;80.60;;;;;;5033915;28;20152;-76
2023/07/23 07:34:50;;;;;;;0.50;0.50;;;21.70;80.70;;;;;;5054845;28;20384;-75
2023/07/23 07:37:15;;;;;;;0.50;0.50;;;21.80;80.00;;;;;;5027966;28;20098;-78
2023/07/23 07:39:41;;;;;;;0.50;0.50;;;21.70;80.80;;;;;;5054395;28;20109;-79
2023/07/23 07:42:07;;;;;;;0.40;0.40;;;21.70;80.10;;;;;;5033162;28;20073;-79
2023/07/23 07:44:32;;;;;;;0.32;0.32;;;21.80;80.20;;;;;;5036477;28;20046;-79
2023/07/23 07:46:58;;;;;;;0.40;0.40;;;21.80;80.50;;;;;;5062193;28;20041;-80
2023/07/23 07:49:24;;;;;;;0.50;0.50;;;21.80;80.40;;;;;;5034204;28;20038;-79
2023/07/23 07:51:49;;;;;;;0.40;0.40;;;21.80;81.30;;;;;;5048664;28;20041;-78
2023/07/23 07:54:15;;;;;;;0.38;0.38;;;21.80;80.60;;;;;;5047200;28;20134;-79
2023/07/23 07:56:43;;;;;;;0.55;0.50;;;21.90;80.20;;;;;;5032498;28;20186;-82
2023/07/23 07:59:12;;;;;;;0.40;0.40;;;21.90;80.80;;;;;;5032297;28;20072;-78
2023/07/23 08:01:37;;;;;;;0.43;0.30;;;21.90;80.50;;;;;;5034527;28;20056;-82
2023/07/23 08:04:07;;;;;;;0.35;0.35;;;21.90;79.70;;;;;;5032290;28;20053;-81
2023/07/23 08:06:33;;;;;;;0.63;0.30;;;21.90;81.20;;;;;;5052126;28;20045;-79
2023/07/23 08:08:59;;;;;;;0.40;0.40;;;21.80;80.50;;;;;;5036072;28;20086;-77
2023/07/23 08:11:25;;;;;;;1.30;0.50;;;21.90;80.30;;;;;;5019992;28;20149;-78
2023/07/23 08:13:50;;;;;;;0.73;0.47;;;21.80;80.40;;;;;;5042148;28;20037;-79
2023/07/23 08:16:16;;;;;;;0.70;0.60;;;21.90;79.50;;;;;;5046972;28;20147;-80
2023/07/23 08:18:42;;;;;;;0.57;0.57;;;21.90;80.30;;;;;;5067885;28;20121;-77
2023/07/23 08:21:08;;;;;;;0.40;0.30;;;21.90;80.30;;;;;;5031160;28;20446;-78
2023/07/23 08:23:36;;;;;;;0.60;0.50;;;21.80;80.50;;;;;;5033467;28;20056;-80
2023/07/23 08:26:02;;;;;;;0.50;0.45;;;21.90;80.20;;;;;;5033157;28;20033;-81
2023/07/23 08:28:31;;;;;;;0.40;0.40;;;21.90;81.00;;;;;;5040171;28;20537;-79
2023/07/23 08:30:57;;;;;;;0.32;0.32;;;21.80;81.50;;;;;;5055626;28;20034;-80
2023/07/23 08:33:25;;;;;;;2.38;0.40;;;21.90;80.80;;;;;;5034641;28;20044;-80
2023/07/23 08:35:50;;;;;;;0.47;0.47;;;21.90;80.30;;;;;;5054348;28;20029;-80
2023/07/23 08:38:16;;;;;;;0.60;0.52;;;21.80;81.50;;;;;;5043372;28;20041;-78
2023/07/23 08:40:43;;;;;;;0.50;0.50;;;21.80;80.70;;;;;;5023401;28;20042;-81
2023/07/23 08:43:29;;;;;;;0.98;0.50;;;21.90;80.40;;;;;;5022458;28;20617;-75
2023/07/23 08:46:20;;;;;;;1.58;0.50;;;21.90;81.40;;;;;;5028380;28;20079;-79
2023/07/23 08:48:54;;;;;;;2.53;0.60;;;21.80;81.30;;;;;;5019318;28;20400;-76
2023/07/23 08:51:20;;;;;;;13.00;1.23;;;21.80;82.20;;;;;;5027493;28;20078;-78
2023/07/23 08:53:47;;;;;;;0.50;0.50;;;21.90;81.70;;;;;;5044681;28;20136;-76
2023/07/23 08:56:12;;;;;;;1.92;0.63;;;21.80;81.70;;;;;;5029730;28;20413;-76
2023/07/23 08:58:38;;;;;;;2.28;0.65;;;21.90;81.90;;;;;;5033052;28;20087;-77
2023/07/23 09:01:03;;;;;;;2.03;0.68;;;21.90;81.50;;;;;;5034775;28;20564;-76
2023/07/23 09:03:29;;;;;;;0.60;0.50;;;21.90;81.40;;;;;;5048736;28;20135;-76
2023/07/23 09:05:55;;;;;;;2.92;0.60;;;21.90;81.40;;;;;;5034895;28;20088;-77
2023/07/23 09:08:20;;;;;;;0.52;0.45;;;21.90;81.20;;;;;;5037608;28;20050;-77
2023/07/23 09:10:46;;;;;;;2.83;0.80;;;21.90;80.90;;;;;;5042329;28;20537;-76
2023/07/23 09:13:14;;;;;;;1.17;0.70;;;21.90;80.80;;;;;;5038099;28;20033;-77
2023/07/23 09:15:40;;;;;;;0.70;0.70;;;21.90;80.70;;;;;;5036276;28;20044;-76
2023/07/23 09:18:06;;;;;;;1.27;0.70;;;21.90;80.50;;;;;;5035597;28;20779;-76
2023/07/23 09:20:32;;;;;;;1.20;0.63;;;22.00;80.50;;;;;;5035737;28;20060;-76
2023/07/23 09:23:05;;;;;;;2.80;0.70;;;21.90;80.40;;;;;;5060198;28;20029;-76
2023/07/23 09:25:31;;;;;;;2.13;0.63;;;22.00;80.40;;;;;;5040822;28;20829;-77
2023/07/23 09:27:56;;;;;;;0.80;0.60;;;21.90;80.20;;;;;;5034293;28;20038;-76
2023/07/23 09:30:23;;;;;;;0.90;0.68;;;22.00;80.10;;;;;;5033412;28;20048;-76
2023/07/23 09:32:59;;;;;;;0.85;0.85;;;22.00;79.80;;;;;;5034020;28;20251;-76
2023/07/23 09:35:25;;;;;;;1.40;0.60;;;22.00;79.60;;;;;;5038807;28;20109;-77
2023/07/23 09:37:57;;;;;;;0.50;0.50;;;22.00;79.50;;;;;;5042219;28;20144;-76
2023/07/23 09:40:33;;;;;;;0.95;0.65;;;22.00;79.60;;;;;;5035965;28;20053;-77
2023/07/23 09:42:59;;;;;;;0.82;0.75;;;22.00;79.40;;;;;;5030491;28;20060;-76
2023/07/23 09:45:25;;;;;;;0.65;0.65;;;22.00;79.20;;;;;;5034302;28;20076;-77
2023/07/23 09:47:52;;;;;;;1.73;0.57;;;22.00;78.90;;;;;;5033594;28;20037;-77
2023/07/23 09:50:17;;;;;;;1.15;0.73;;;22.00;78.80;;;;;;5053628;28;20072;-77
2023/07/23 09:52:43;;;;;;;0.70;0.60;;;22.00;78.30;;;;;;5041473;28;20041;-77
2023/07/23 09:55:08;;;;;;;1.63;0.70;;;22.00;78.30;;;;;;5037548;28;20037;-77
2023/07/23 09:57:34;;;;;;;0.75;0.75;;;22.00;78.30;;;;;;5033175;28;20045;-77
2023/07/23 10:00:00;;;;;;;0.65;0.60;;;22.00;77.90;;;;;;5034157;28;20117;-76
2023/07/23 10:02:26;;;;;;;0.60;0.60;;;22.00;77.70;;;;;;5032966;28;20103;-77
2023/07/23 10:04:52;;;;;;;1.15;0.80;;;22.00;77.60;;;;;;5038793;28;20041;-76
2023/07/23 10:07:18;;;;;;;0.57;0.50;;;22.00;77.60;;;;;;5043095;28;20052;-77
2023/07/23 10:09:43;;;;;;;0.47;0.47;;;22.00;77.40;;;;;;5033351;28;20041;-76
2023/07/23 10:12:09;;;;;;;0.90;0.50;;;22.00;77.10;;;;;;5020041;28;20065;-77
2023/07/23 10:14:34;;;;;;;0.65;0.63;;;22.00;77.10;;;;;;5032378;28;20053;-77
2023/07/23 10:17:00;;;;;;;0.60;0.57;;;22.00;77.00;;;;;;5041680;28;20487;-77
2023/07/23 10:19:25;;;;;;;0.60;0.60;;;22.00;76.90;;;;;;5022290;28;20084;-75
2023/07/23 10:21:51;;;;;;;0.50;0.50;;;22.00;76.20;;;;;;5033643;28;20142;-76
2023/07/23 10:24:16;;;;;;;0.90;0.47;;;22.00;76.30;;;;;;5036293;28;20464;-77
2023/07/23 10:26:45;;;;;;;0.90;0.45;;;22.00;75.90;;;;;;5036065;28;20041;-76
2023/07/23 10:29:12;;;;;;;0.43;0.40;;;22.10;75.90;;;;;;5032519;28;20069;-76
2023/07/23 10:31:39;;;;;;;1.25;0.50;;;22.00;75.90;;;;;;5025087;28;20041;-78
2023/07/23 10:34:22;;;;;;;0.40;0.40;;;22.10;75.60;;;;;;5030232;28;20574;-77
2023/07/23 10:37:18;;;;;;;1.70;0.40;;;22.10;75.50;;;;;;5027944;28;20034;-77
2023/07/23 10:39:48;;;;;;;0.50;0.50;;;22.10;75.30;;;;;;5040264;28;20054;-78
2023/07/23 10:42:35;;;;;;;1.75;0.75;;;22.10;75.10;;;;;;5032196;28;20049;-78
2023/07/23 10:45:15;;;;;;;0.88;0.43;;;22.10;75.10;;;;;;5033070;28;20053;-77
2023/07/23 10:47:49;;;;;;;0.45;0.45;;;22.10;75.00;;;;;;5031532;28;20443;-77
2023/07/23 10:50:18;;;;;;;0.80;0.60;;;22.10;75.60;;;;;;5032713;28;20029;-77
2023/07/23 10:52:44;;;;;;;0.52;0.30;;;22.10;74.50;;;;;;5024465;28;20067;-77
2023/07/23 10:55:10;;;;;;;0.40;0.40;;;22.10;74.50;;;;;;5036294;28;20033;-77
2023/07/23 10:57:40;;;;;;;0.40;0.40;;;22.10;74.60;;;;;;5021332;28;20444;-77
2023/07/23 11:00:20;;;;;;;0.55;0.40;;;22.10;74.40;;;;;;5039983;28;20049;-77
2023/07/23 11:02:48;;;;;;;0.47;0.40;;;22.20;74.30;;;;;;5052726;28;20103;-77
2023/07/23 11:05:15;;;;;;;0.63;0.50;;;22.10;74.30;;;;;;5028302;28;20049;-77
2023/07/23 11:07:40;;;;;;;0.55;0.40;;;22.20;74.20;;;;;;4994050;28;20052;-77
2023/07/23 11:10:20;;;;;;;0.50;0.50;;;22.10;74.00;;;;;;5028156;28;20054;-76
2023/07/23 11:12:46;;;;;;;0.45;0.45;;;22.10;74.00;;;;;;5034283;28;20457;-77
2023/07/23 11:15:15;;;;;;;0.40;0.40;;;22.10;74.00;;;;;;5025660;28;20077;-77
2023/07/23 11:17:41;;;;;;;0.40;0.40;;;22.10;73.70;;;;;;5034596;28;20033;-77
2023/07/23 11:20:07;;;;;;;0.30;0.30;;;22.20;73.70;;;;;;5047881;28;20418;-77
2023/07/23 11:22:32;;;;;;;0.40;0.40;;;22.20;73.60;;;;;;5054845;28;20063;-78
2023/07/23 11:24:58;;;;;;;1.90;0.40;;;22.20;73.40;;;;;;5037254;28;20625;-78
2023/07/23 11:27:24;;;;;;;1.00;0.50;;;22.10;73.40;;;;;;5031919;28;20045;-77
2023/07/23 11:29:49;;;;;;;3.38;1.15;;;22.10;73.50;;;;;;5048540;28;20707;-76
2023/07/23 11:32:15;;;;;;;3.33;1.52;;;22.20;73.70;;;;;;5043825;28;20033;-76
2023/07/23 11:34:40;;;;;;;2.83;1.42;;;22.30;74.20;;;;;;5037443;28;20037;-76
2023/07/23 11:37:08;;;;;;;6.10;2.42;;;22.20;76.30;;;;;;5042269;28;20049;-75
2023/07/23 11:39:33;;;;;;;5.55;2.40;;;22.20;75.10;;;;;;5044220;28;20057;-76
2023/07/23 11:41:59;;;;;;;3.85;1.75;;;22.20;75.30;;;;;;5047289;28;20540;-76
2023/07/23 11:44:24;;;;;;;3.65;1.40;;;22.20;76.90;;;;;;5050716;28;20483;-76
2023/07/23 11:46:56;;;;;;;1.02;0.90;;;22.30;77.30;;;;;;5068386;28;20040;-76
2023/07/23 11:49:21;;;;;;;1.35;0.82;;;22.20;76.10;;;;;;5045233;28;20037;-76
2023/07/23 11:51:47;;;;;;;2.20;0.80;;;22.30;75.70;;;;;;5032204;28;20077;-76
2023/07/23 11:54:13;;;;;;;1.27;0.85;;;22.20;75.30;;;;;;5048230;28;20136;-77
2023/07/23 11:56:45;;;;;;;1.23;0.88;;;22.20;75.60;;;;;;5052602;28;20537;-75
2023/07/23 11:59:11;;;;;;;2.00;0.70;;;22.20;75.70;;;;;;5044177;28;20121;-77
2023/07/23 12:01:37;;;;;;;1.20;0.63;;;22.20;75.20;;;;;;5037308;28;20120;-77
2023/07/23 12:04:04;;;;;;;0.75;0.70;;;22.30;74.80;;;;;;5045445;28;20067;-77
2023/07/23 12:06:34;;;;;;;1.40;0.60;;;22.30;74.70;;;;;;5048254;28;20060;-76
2023/07/23 12:09:00;;;;;;;0.80;0.80;;;22.20;74.40;;;;;;5061415;28;20045;-76
2023/07/23 12:11:32;;;;;;;1.80;0.70;;;22.20;74.20;;;;;;5049038;28;20040;-76
2023/07/23 12:14:02;;;;;;;0.82;0.45;;;22.20;73.80;;;;;;5035504;28;20037;-77
2023/07/23 12:16:43;;;;;;;2.35;0.55;;;22.20;73.90;;;;;;5030813;28;20037;-76
2023/07/23 12:19:16;;;;;;;1.67;0.80;;;22.20;73.80;;;;;;5010607;28;20493;-76
2023/07/23 12:21:42;;;;;;;0.75;0.60;;;22.20;73.80;;;;;;5018540;28;20494;-76
2023/07/23 12:24:22;;;;;;;4.15;0.90;;;22.20;73.30;;;;;;5022410;28;20111;-77
2023/07/23 12:26:57;;;;;;;0.52;0.40;;;22.20;73.30;;;;;;5042854;28;20055;-77
2023/07/23 12:29:24;;;;;;;0.60;0.50;;;22.20;73.40;;;;;;5037074;28;20151;-77
2023/07/23 12:32:08;;;;;;;1.80;1.00;;;22.20;73.40;;;;;;5032028;28;20055;-77
2023/07/23 12:34:33;;;;;;;6.35;1.77;;;22.20;73.40;;;;;;5041961;28;20103;-78
2023/07/23 12:36:59;;;;;;;3.53;1.35;;;22.20;73.70;;;;;;5043084;28;20061;-78
2023/07/23 12:39:29;;;;;;;4.57;1.48;;;22.20;74.10;;;;;;4862538;28;10000448;-77
2023/07/23 12:41:54;;;;;;;4.70;3.00;;;22.30;74.60;;;;;;5036053;28;20254;-76
2023/07/23 12:44:20;;;;;;;7.03;2.40;;;22.30;75.70;;;;;;5044722;28;20057;-76